Castle Combe, United Kingdom
Current Conditions -  °F | °C
As of 12:20 PM on Friday 28 Nov 2014 (Local Time) from EGGD Reporting Station
Broken Clouds Broken Clouds  
Wind Chill: 50°   Ceiling: 800
Heat Index: 50°   Visibility: 6mi
Dew Point: 46°   Wind: 14mph
Humidity: 87%   Direction: 70°ENE
Pressure: 29.56"   Gusts: NA
Location:  51.49°N, 2.22°W
Report Text: EGGD 281220Z 07012KT 9000 BKN008 10/08 Q1001
Loading
Personal Weather Stations






























Interactive Weather Map New forecast layout! Learn more

10-Day Weather Forecast

Advertisements
Track Severe Weather on mobile